LHPP/PEV METAR and TAF weather

Enter ICAO airport designator
Station Type Date Time Source
LHPP METAR 2019/02/17 07:45 UTC NOAA

LHPP 170745Z 00000KT CAVOK 06/01 Q1030


Station Type Date Time Source
LHPP Decoded METAR 2019/02/17 07:45 UTC NOAA

Pecs / Pogany, Hungary (LHPP) 46-06N 018-14E 203M
Feb 17, 2019 - 02:45 AM EST / 2019.02.17 0745 UTC
Wind: Calm:0
Visibility: greater than 7 mile(s):0
Temperature: 42 F (6 C)
Dew Point: 33 F (1 C)
Relative Humidity: 70%
Pressure (altimeter): 30.42 in. Hg (1030 hPa)
ob: LHPP 170745Z 00000KT CAVOK 06/01 Q1030
cycle: 8

Station Type Date Time Source
LHPP TAF 2017/08/21 15:50 UTC NOAA

TAF LHPP 211700Z 2115/2214 CNL


Example: see airport list